Home   Weather   Romania   Iași   Past weeks
Flag for Romania

Past Weather in Iași, Romania — Yesterday and Last 2 Weeks

Currently: 64 °F. Clear. (Weather station: Iasi Airport, Romania). See more current weather

Past Weather in Iași — Graph

°F

Iași Temperature Yesterday

Maximum temperature yesterday: 77 °F (at 4:00 pm)
Minimum temperature yesterday: 61 °F (at 12:00 am)
Average temperature yesterday: 68 °F

High & Low Weather Summary for the Past Weeks

 TemperatureHumidityPressure
High91 °F (Jul 17, 3:30 pm)100% (Jul 11, 4:00 am)30.21 "Hg (Jul 11, 4:00 am)
Low57 °F (Jul 23, 3:30 am)33% (Jul 9, 6:00 pm)29.74 "Hg (Jul 20, 6:00 pm)
Average75 °F69%29.94 "Hg
* Reported Jul 8 9:00 pm — Jul 23 9:30 pm, Iași. Weather by CustomWeather, © 2021

Note: Actual official high and low records may vary slightly from our data, if they occured in-between our weather recording intervals... More about our weather records

Iași Weather History for the Previous 24 Hours

Scroll right to see more
 ConditionsComfort  
Time TempWeatherWind HumidityBarometerVisibility
9:30 pm
Fri, Jul 23
66 °FClear.5 mph78%29.98 "Hg10 mi
9:00 pm68 °FClear.3 mph73%29.98 "Hg10 mi
8:30 pm72 °FSunny.3 mph65%29.98 "Hg10 mi
8:00 pm73 °FSunny.5 mph61%29.98 "Hg10 mi
7:30 pm75 °FSunny.5 mph54%29.98 "Hg10 mi
7:00 pm77 °FPassing clouds.8 mph44%29.98 "HgN/A
6:30 pm79 °FSunny.7 mph45%29.98 "Hg10 mi
6:00 pm79 °FPassing clouds.8 mph45%29.98 "HgN/A
5:30 pm79 °FSunny.9 mph42%29.98 "Hg10 mi
5:00 pm79 °FPassing clouds.9 mph42%29.98 "HgN/A
4:30 pm79 °FPassing clouds.8 mph42%29.98 "HgN/A
4:00 pm79 °FPassing clouds.8 mph45%29.98 "HgN/A
3:30 pm79 °FSunny.9 mph42%29.98 "Hg10 mi
3:00 pm79 °FPassing clouds.8 mph45%29.98 "HgN/A
2:30 pm79 °FPassing clouds.10 mph48%30.01 "HgN/A
2:00 pm77 °FScattered clouds.7 mph51%30.01 "HgN/A
1:30 pm77 °FScattered clouds.8 mph54%30.01 "HgN/A
1:00 pm77 °FScattered clouds.5 mph51%30.01 "HgN/A
12:30 pm75 °FScattered clouds.7 mph54%30.01 "HgN/A
12:00 pm75 °FPassing clouds.3 mph61%30.01 "HgN/A
11:30 am73 °FPassing clouds.6 mph61%30.04 "HgN/A
11:00 am72 °FPassing clouds.5 mph65%30.04 "HgN/A
10:30 am72 °FPassing clouds.5 mph69%30.04 "HgN/A
10:00 am70 °FPassing clouds.6 mph73%30.04 "HgN/A
8:30 am64 °FPassing clouds.3 mph88%30.04 "HgN/A
8:00 am63 °FPassing clouds.3 mph88%30.04 "HgN/A
7:30 am61 °FSunny.5 mph88%30.04 "Hg10 mi
7:00 am59 °FSunny.3 mph94%30.04 "Hg10 mi
6:30 am59 °FSunny.3 mph94%30.04 "Hg10 mi
6:00 am57 °FSunny.3 mph100%30.04 "Hg10 mi
5:30 am57 °FClear.3 mph100%30.04 "Hg10 mi
4:30 am57 °FCool.2 mph94%30.04 "HgN/A
4:00 am57 °FClear.3 mph94%30.04 "Hg10 mi
3:30 am57 °FClear.3 mph94%30.04 "Hg10 mi
2:30 am59 °FClear.6 mph88%30.04 "Hg10 mi
2:00 am59 °FClear.6 mph88%30.04 "Hg10 mi
1:30 am61 °FClear.6 mph83%30.04 "Hg10 mi
1:00 am59 °FClear.6 mph88%30.04 "Hg10 mi
12:30 am61 °FClear.5 mph83%30.04 "Hg10 mi
12:00 am59 °FClear.3 mph88%30.04 "Hg10 mi
11:30 pm
Thu, Jul 22
61 °FClear.6 mph77%30.01 "Hg10 mi
11:00 pm63 °FClear.6 mph73%30.01 "Hg10 mi
10:30 pm63 °FMild.6 mph73%30.01 "HgN/A
10:00 pm63 °FClear.6 mph77%30.01 "Hg10 mi
Weather by CustomWeather, © 2021

See weather overview